sensor_id;sensor_type;location;lat;lon;timestamp;P1;durP1;ratioP1;P2;durP2;ratioP2
17510;SDS011;8873;48.818;9.422;2023-04-06T00:01:39;13.97;;;7.07;;
17510;SDS011;8873;48.818;9.422;2023-04-06T00:04:07;13.43;;;7.87;;
17510;SDS011;8873;48.818;9.422;2023-04-06T00:06:35;11.00;;;6.83;;
17510;SDS011;8873;48.818;9.422;2023-04-06T00:09:04;10.50;;;6.73;;
17510;SDS011;8873;48.818;9.422;2023-04-06T00:11:32;12.00;;;7.17;;
17510;SDS011;8873;48.818;9.422;2023-04-06T00:14:00;12.73;;;7.57;;
17510;SDS011;8873;48.818;9.422;2023-04-06T00:16:27;12.83;;;6.70;;
17510;SDS011;8873;48.818;9.422;2023-04-06T00:18:56;12.37;;;7.03;;
17510;SDS011;8873;48.818;9.422;2023-04-06T00:21:23;11.57;;;7.23;;
17510;SDS011;8873;48.818;9.422;2023-04-06T00:23:53;12.37;;;6.77;;
17510;SDS011;8873;48.818;9.422;2023-04-06T00:26:23;11.27;;;7.23;;
17510;SDS011;8873;48.818;9.422;2023-04-06T00:28:50;12.30;;;7.10;;
17510;SDS011;8873;48.818;9.422;2023-04-06T00:31:18;14.73;;;6.87;;
17510;SDS011;8873;48.818;9.422;2023-04-06T00:33:47;13.27;;;7.50;;
17510;SDS011;8873;48.818;9.422;2023-04-06T00:36:15;10.00;;;6.77;;
17510;SDS011;8873;48.818;9.422;2023-04-06T00:38:43;11.60;;;6.47;;
17510;SDS011;8873;48.818;9.422;2023-04-06T00:41:10;12.80;;;6.87;;
17510;SDS011;8873;48.818;9.422;2023-04-06T00:43:40;11.27;;;6.60;;
17510;SDS011;8873;48.818;9.422;2023-04-06T00:46:07;11.40;;;7.00;;
17510;SDS011;8873;48.818;9.422;2023-04-06T00:48:35;11.57;;;7.30;;
17510;SDS011;8873;48.818;9.422;2023-04-06T00:51:03;21.57;;;7.73;;
17510;SDS011;8873;48.818;9.422;2023-04-06T00:53:30;13.90;;;7.33;;
17510;SDS011;8873;48.818;9.422;2023-04-06T00:55:58;11.17;;;6.80;;
17510;SDS011;8873;48.818;9.422;2023-04-06T00:58:26;12.43;;;6.90;;
17510;SDS011;8873;48.818;9.422;2023-04-06T01:00:55;14.30;;;7.70;;
17510;SDS011;8873;48.818;9.422;2023-04-06T01:03:23;11.10;;;7.43;;
17510;SDS011;8873;48.818;9.422;2023-04-06T01:05:51;13.23;;;7.17;;
17510;SDS011;8873;48.818;9.422;2023-04-06T01:08:24;12.50;;;7.43;;
17510;SDS011;8873;48.818;9.422;2023-04-06T01:10:52;19.53;;;8.50;;
17510;SDS011;8873;48.818;9.422;2023-04-06T01:13:19;12.23;;;7.53;;
17510;SDS011;8873;48.818;9.422;2023-04-06T01:15:47;12.97;;;7.40;;
17510;SDS011;8873;48.818;9.422;2023-04-06T01:18:16;11.80;;;6.90;;
17510;SDS011;8873;48.818;9.422;2023-04-06T01:20:44;14.37;;;7.57;;
17510;SDS011;8873;48.818;9.422;2023-04-06T01:23:13;12.50;;;7.87;;
17510;SDS011;8873;48.818;9.422;2023-04-06T01:25:40;16.63;;;7.60;;
17510;SDS011;8873;48.818;9.422;2023-04-06T01:28:08;16.53;;;7.40;;
17510;SDS011;8873;48.818;9.422;2023-04-06T01:30:36;17.53;;;7.87;;
17510;SDS011;8873;48.818;9.422;2023-04-06T01:33:03;14.47;;;7.90;;
17510;SDS011;8873;48.818;9.422;2023-04-06T01:35:31;17.23;;;7.97;;
17510;SDS011;8873;48.818;9.422;2023-04-06T01:37:58;15.70;;;7.93;;
17510;SDS011;8873;48.818;9.422;2023-04-06T01:40:27;14.70;;;7.93;;
17510;SDS011;8873;48.818;9.422;2023-04-06T01:42:55;14.20;;;8.00;;
17510;SDS011;8873;48.818;9.422;2023-04-06T01:45:22;15.90;;;7.83;;
17510;SDS011;8873;48.818;9.422;2023-04-06T01:47:50;16.97;;;7.93;;
17510;SDS011;8873;48.818;9.422;2023-04-06T01:50:18;14.03;;;7.50;;
17510;SDS011;8873;48.818;9.422;2023-04-06T01:52:46;15.53;;;8.07;;
17510;SDS011;8873;48.818;9.422;2023-04-06T01:55:14;17.10;;;8.17;;
17510;SDS011;8873;48.818;9.422;2023-04-06T01:57:43;10.57;;;6.80;;
17510;SDS011;8873;48.818;9.422;2023-04-06T02:00:11;10.90;;;7.47;;
17510;SDS011;8873;48.818;9.422;2023-04-06T02:02:39;10.50;;;6.67;;
17510;SDS011;8873;48.818;9.422;2023-04-06T02:05:07;12.10;;;7.50;;
17510;SDS011;8873;48.818;9.422;2023-04-06T02:07:35;15.93;;;8.03;;
17510;SDS011;8873;48.818;9.422;2023-04-06T02:10:03;13.50;;;7.80;;
17510;SDS011;8873;48.818;9.422;2023-04-06T02:12:30;13.47;;;7.67;;
17510;SDS011;8873;48.818;9.422;2023-04-06T02:14:59;12.87;;;7.70;;
17510;SDS011;8873;48.818;9.422;2023-04-06T02:17:27;15.00;;;8.37;;
17510;SDS011;8873;48.818;9.422;2023-04-06T02:19:55;15.10;;;7.97;;
17510;SDS011;8873;48.818;9.422;2023-04-06T02:22:22;13.73;;;7.97;;
17510;SDS011;8873;48.818;9.422;2023-04-06T02:24:50;15.00;;;7.70;;
17510;SDS011;8873;48.818;9.422;2023-04-06T02:27:17;12.43;;;7.47;;
17510;SDS011;8873;48.818;9.422;2023-04-06T02:29:45;11.73;;;7.40;;
17510;SDS011;8873;48.818;9.422;2023-04-06T02:32:14;14.93;;;7.87;;
17510;SDS011;8873;48.818;9.422;2023-04-06T02:34:41;12.83;;;7.77;;
17510;SDS011;8873;48.818;9.422;2023-04-06T02:37:09;14.07;;;7.97;;
17510;SDS011;8873;48.818;9.422;2023-04-06T02:39:36;13.23;;;7.20;;
17510;SDS011;8873;48.818;9.422;2023-04-06T02:42:04;13.37;;;7.13;;
17510;SDS011;8873;48.818;9.422;2023-04-06T02:44:34;13.60;;;7.83;;
17510;SDS011;8873;48.818;9.422;2023-04-06T02:47:01;12.40;;;6.87;;
17510;SDS011;8873;48.818;9.422;2023-04-06T02:49:30;16.60;;;7.73;;
17510;SDS011;8873;48.818;9.422;2023-04-06T02:51:58;13.50;;;7.37;;
17510;SDS011;8873;48.818;9.422;2023-04-06T02:54:25;12.30;;;7.73;;
17510;SDS011;8873;48.818;9.422;2023-04-06T02:56:53;15.67;;;7.73;;
17510;SDS011;8873;48.818;9.422;2023-04-06T02:59:20;15.97;;;8.03;;
17510;SDS011;8873;48.818;9.422;2023-04-06T03:01:48;14.63;;;8.10;;
17510;SDS011;8873;48.818;9.422;2023-04-06T03:04:16;14.47;;;7.80;;
17510;SDS011;8873;48.818;9.422;2023-04-06T03:06:45;13.97;;;8.50;;
17510;SDS011;8873;48.818;9.422;2023-04-06T03:09:12;15.23;;;8.67;;
17510;SDS011;8873;48.818;9.422;2023-04-06T03:11:40;13.70;;;6.87;;
17510;SDS011;8873;48.818;9.422;2023-04-06T03:14:07;16.90;;;8.53;;
17510;SDS011;8873;48.818;9.422;2023-04-06T03:16:35;13.37;;;8.03;;
17510;SDS011;8873;48.818;9.422;2023-04-06T03:19:03;16.00;;;7.60;;
17510;SDS011;8873;48.818;9.422;2023-04-06T03:21:31;17.10;;;7.67;;
17510;SDS011;8873;48.818;9.422;2023-04-06T03:24:00;14.87;;;8.03;;
17510;SDS011;8873;48.818;9.422;2023-04-06T03:26:27;14.97;;;8.17;;
17510;SDS011;8873;48.818;9.422;2023-04-06T03:28:55;14.63;;;7.97;;
17510;SDS011;8873;48.818;9.422;2023-04-06T03:31:22;15.37;;;8.07;;
17510;SDS011;8873;48.818;9.422;2023-04-06T03:33:50;16.10;;;8.67;;
17510;SDS011;8873;48.818;9.422;2023-04-06T03:36:17;18.63;;;8.43;;
17510;SDS011;8873;48.818;9.422;2023-04-06T03:38:45;13.93;;;7.80;;
17510;SDS011;8873;48.818;9.422;2023-04-06T03:41:14;15.90;;;8.60;;
17510;SDS011;8873;48.818;9.422;2023-04-06T03:43:42;12.83;;;8.27;;
17510;SDS011;8873;48.818;9.422;2023-04-06T03:46:09;12.10;;;7.80;;
17510;SDS011;8873;48.818;9.422;2023-04-06T03:48:37;12.87;;;8.00;;
17510;SDS011;8873;48.818;9.422;2023-04-06T03:51:04;13.30;;;8.17;;
17510;SDS011;8873;48.818;9.422;2023-04-06T03:53:32;15.53;;;8.20;;
17510;SDS011;8873;48.818;9.422;2023-04-06T03:55:59;20.90;;;8.00;;
17510;SDS011;8873;48.818;9.422;2023-04-06T03:58:31;12.47;;;7.87;;
17510;SDS011;8873;48.818;9.422;2023-04-06T04:00:59;13.53;;;7.80;;
17510;SDS011;8873;48.818;9.422;2023-04-06T04:03:26;17.57;;;8.10;;
17510;SDS011;8873;48.818;9.422;2023-04-06T04:05:54;14.10;;;8.10;;
17510;SDS011;8873;48.818;9.422;2023-04-06T04:08:22;14.17;;;8.33;;
17510;SDS011;8873;48.818;9.422;2023-04-06T04:10:50;16.13;;;8.10;;
17510;SDS011;8873;48.818;9.422;2023-04-06T04:13:18;20.90;;;10.27;;
17510;SDS011;8873;48.818;9.422;2023-04-06T04:15:47;16.67;;;9.20;;
17510;SDS011;8873;48.818;9.422;2023-04-06T04:18:14;21.77;;;9.17;;
17510;SDS011;8873;48.818;9.422;2023-04-06T04:20:42;16.13;;;7.83;;
17510;SDS011;8873;48.818;9.422;2023-04-06T04:23:10;17.60;;;8.80;;
17510;SDS011;8873;48.818;9.422;2023-04-06T04:25:37;15.33;;;7.90;;
17510;SDS011;8873;48.818;9.422;2023-04-06T04:28:05;16.03;;;8.43;;
17510;SDS011;8873;48.818;9.422;2023-04-06T04:30:32;16.13;;;8.50;;
17510;SDS011;8873;48.818;9.422;2023-04-06T04:33:01;15.50;;;7.83;;
17510;SDS011;8873;48.818;9.422;2023-04-06T04:35:29;15.83;;;8.27;;
17510;SDS011;8873;48.818;9.422;2023-04-06T04:37:56;17.77;;;8.30;;
17510;SDS011;8873;48.818;9.422;2023-04-06T04:40:24;17.47;;;7.93;;
17510;SDS011;8873;48.818;9.422;2023-04-06T04:42:52;14.93;;;7.90;;
17510;SDS011;8873;48.818;9.422;2023-04-06T04:45:19;17.17;;;8.97;;
17510;SDS011;8873;48.818;9.422;2023-04-06T04:47:47;14.73;;;8.57;;
17510;SDS011;8873;48.818;9.422;2023-04-06T04:50:16;17.70;;;8.70;;
17510;SDS011;8873;48.818;9.422;2023-04-06T04:52:43;21.63;;;8.60;;
17510;SDS011;8873;48.818;9.422;2023-04-06T04:55:11;20.23;;;8.00;;
17510;SDS011;8873;48.818;9.422;2023-04-06T04:57:39;14.97;;;7.90;;
17510;SDS011;8873;48.818;9.422;2023-04-06T05:00:07;53.80;;;17.20;;
17510;SDS011;8873;48.818;9.422;2023-04-06T05:02:35;30.17;;;12.97;;
17510;SDS011;8873;48.818;9.422;2023-04-06T05:05:03;21.93;;;10.73;;
17510;SDS011;8873;48.818;9.422;2023-04-06T05:07:32;21.40;;;8.57;;
17510;SDS011;8873;48.818;9.422;2023-04-06T05:10:00;17.93;;;9.00;;
17510;SDS011;8873;48.818;9.422;2023-04-06T05:12:28;14.10;;;8.70;;
17510;SDS011;8873;48.818;9.422;2023-04-06T05:14:56;17.40;;;8.80;;
17510;SDS011;8873;48.818;9.422;2023-04-06T05:17:24;15.20;;;8.83;;
17510;SDS011;8873;48.818;9.422;2023-04-06T05:19:52;16.80;;;8.10;;
17510;SDS011;8873;48.818;9.422;2023-04-06T05:22:19;19.07;;;8.57;;
17510;SDS011;8873;48.818;9.422;2023-04-06T05:24:48;14.90;;;9.10;;
17510;SDS011;8873;48.818;9.422;2023-04-06T05:27:16;20.90;;;8.83;;
17510;SDS011;8873;48.818;9.422;2023-04-06T05:29:43;17.90;;;9.07;;
17510;SDS011;8873;48.818;9.422;2023-04-06T05:32:13;17.53;;;8.93;;
17510;SDS011;8873;48.818;9.422;2023-04-06T05:34:40;13.17;;;8.20;;
17510;SDS011;8873;48.818;9.422;2023-04-06T05:37:08;15.97;;;9.50;;
17510;SDS011;8873;48.818;9.422;2023-04-06T05:39:36;19.13;;;9.53;;
17510;SDS011;8873;48.818;9.422;2023-04-06T05:42:05;17.80;;;9.07;;
17510;SDS011;8873;48.818;9.422;2023-04-06T05:44:33;22.50;;;9.37;;
17510;SDS011;8873;48.818;9.422;2023-04-06T05:47:01;15.83;;;9.37;;
17510;SDS011;8873;48.818;9.422;2023-04-06T05:49:29;45.20;;;13.80;;
17510;SDS011;8873;48.818;9.422;2023-04-06T05:51:57;24.00;;;9.77;;
17510;SDS011;8873;48.818;9.422;2023-04-06T05:54:25;16.10;;;8.70;;
17510;SDS011;8873;48.818;9.422;2023-04-06T05:56:52;16.80;;;9.37;;
17510;SDS011;8873;48.818;9.422;2023-04-06T05:59:21;14.90;;;8.57;;
17510;SDS011;8873;48.818;9.422;2023-04-06T06:01:50;15.50;;;8.60;;
17510;SDS011;8873;48.818;9.422;2023-04-06T06:04:17;16.97;;;9.17;;
17510;SDS011;8873;48.818;9.422;2023-04-06T06:06:45;19.47;;;8.83;;
17510;SDS011;8873;48.818;9.422;2023-04-06T06:09:12;17.87;;;9.30;;
17510;SDS011;8873;48.818;9.422;2023-04-06T06:11:40;18.30;;;9.47;;
17510;SDS011;8873;48.818;9.422;2023-04-06T06:14:08;19.47;;;9.30;;
17510;SDS011;8873;48.818;9.422;2023-04-06T06:16:37;19.60;;;9.87;;
17510;SDS011;8873;48.818;9.422;2023-04-06T06:19:05;19.70;;;9.30;;
17510;SDS011;8873;48.818;9.422;2023-04-06T06:21:33;18.37;;;8.97;;
17510;SDS011;8873;48.818;9.422;2023-04-06T06:24:06;15.63;;;8.43;;
17510;SDS011;8873;48.818;9.422;2023-04-06T06:26:37;19.87;;;8.53;;
17510;SDS011;8873;48.818;9.422;2023-04-06T06:29:06;18.63;;;9.27;;
17510;SDS011;8873;48.818;9.422;2023-04-06T06:31:39;16.10;;;8.27;;
17510;SDS011;8873;48.818;9.422;2023-04-06T06:34:06;14.63;;;8.53;;
17510;SDS011;8873;48.818;9.422;2023-04-06T06:36:34;15.37;;;8.50;;
17510;SDS011;8873;48.818;9.422;2023-04-06T06:39:05;22.00;;;9.10;;
17510;SDS011;8873;48.818;9.422;2023-04-06T06:41:33;18.37;;;8.70;;
17510;SDS011;8873;48.818;9.422;2023-04-06T06:44:27;19.17;;;9.47;;
17510;SDS011;8873;48.818;9.422;2023-04-06T06:46:57;16.70;;;9.30;;
17510;SDS011;8873;48.818;9.422;2023-04-06T06:49:24;23.77;;;9.63;;
17510;SDS011;8873;48.818;9.422;2023-04-06T06:51:52;21.20;;;8.97;;
17510;SDS011;8873;48.818;9.422;2023-04-06T06:54:20;26.43;;;10.43;;
17510;SDS011;8873;48.818;9.422;2023-04-06T06:56:48;17.63;;;9.23;;
17510;SDS011;8873;48.818;9.422;2023-04-06T06:59:17;17.07;;;9.40;;
17510;SDS011;8873;48.818;9.422;2023-04-06T07:01:45;16.17;;;9.57;;
17510;SDS011;8873;48.818;9.422;2023-04-06T07:04:14;18.30;;;9.97;;
17510;SDS011;8873;48.818;9.422;2023-04-06T07:07:18;16.47;;;9.00;;
17510;SDS011;8873;48.818;9.422;2023-04-06T07:10:10;17.50;;;9.37;;
17510;SDS011;8873;48.818;9.422;2023-04-06T07:12:47;18.77;;;9.23;;
17510;SDS011;8873;48.818;9.422;2023-04-06T07:15:23;18.07;;;9.63;;
17510;SDS011;8873;48.818;9.422;2023-04-06T07:18:00;17.33;;;9.00;;
17510;SDS011;8873;48.818;9.422;2023-04-06T07:23:55;14.43;;;8.80;;
17510;SDS011;8873;48.818;9.422;2023-04-06T07:26:22;19.03;;;9.23;;
17510;SDS011;8873;48.818;9.422;2023-04-06T07:28:53;15.77;;;8.70;;
17510;SDS011;8873;48.818;9.422;2023-04-06T07:35:16;18.70;;;8.90;;
17510;SDS011;8873;48.818;9.422;2023-04-06T07:38:23;20.30;;;9.73;;
17510;SDS011;8873;48.818;9.422;2023-04-06T07:40:53;18.47;;;9.03;;
17510;SDS011;8873;48.818;9.422;2023-04-06T07:43:20;16.77;;;9.77;;
17510;SDS011;8873;48.818;9.422;2023-04-06T07:45:48;14.10;;;8.70;;
17510;SDS011;8873;48.818;9.422;2023-04-06T07:48:16;16.20;;;9.05;;
17510;SDS011;8873;48.818;9.422;2023-04-06T07:50:43;19.88;;;9.45;;
17510;SDS011;8873;48.818;9.422;2023-04-06T07:53:11;16.08;;;8.90;;
17510;SDS011;8873;48.818;9.422;2023-04-06T07:55:39;18.17;;;9.32;;
17510;SDS011;8873;48.818;9.422;2023-04-06T07:58:08;17.42;;;9.20;;
17510;SDS011;8873;48.818;9.422;2023-04-06T08:00:35;22.40;;;9.45;;
17510;SDS011;8873;48.818;9.422;2023-04-06T08:03:03;17.75;;;8.95;;
17510;SDS011;8873;48.818;9.422;2023-04-06T08:05:31;13.75;;;8.50;;
17510;SDS011;8873;48.818;9.422;2023-04-06T08:07:59;15.38;;;8.63;;
17510;SDS011;8873;48.818;9.422;2023-04-06T08:10:26;18.80;;;10.18;;
17510;SDS011;8873;48.818;9.422;2023-04-06T08:12:54;15.82;;;9.02;;
17510;SDS011;8873;48.818;9.422;2023-04-06T08:15:23;16.63;;;8.98;;
17510;SDS011;8873;48.818;9.422;2023-04-06T08:17:51;15.55;;;8.70;;
17510;SDS011;8873;48.818;9.422;2023-04-06T08:20:19;16.45;;;8.63;;
17510;SDS011;8873;48.818;9.422;2023-04-06T08:22:46;13.30;;;8.02;;
17510;SDS011;8873;48.818;9.422;2023-04-06T08:25:18;15.88;;;8.20;;
17510;SDS011;8873;48.818;9.422;2023-04-06T08:27:45;17.42;;;8.73;;
17510;SDS011;8873;48.818;9.422;2023-04-06T08:30:13;14.88;;;8.20;;
17510;SDS011;8873;48.818;9.422;2023-04-06T08:32:43;18.70;;;8.40;;
17510;SDS011;8873;48.818;9.422;2023-04-06T08:35:11;16.65;;;7.72;;
17510;SDS011;8873;48.818;9.422;2023-04-06T08:37:39;17.73;;;8.77;;
17510;SDS011;8873;48.818;9.422;2023-04-06T08:40:07;14.90;;;8.50;;
17510;SDS011;8873;48.818;9.422;2023-04-06T08:42:38;15.93;;;8.13;;
17510;SDS011;8873;48.818;9.422;2023-04-06T08:45:07;15.55;;;7.63;;
17510;SDS011;8873;48.818;9.422;2023-04-06T08:47:35;13.88;;;8.02;;
17510;SDS011;8873;48.818;9.422;2023-04-06T08:50:05;15.68;;;8.20;;
17510;SDS011;8873;48.818;9.422;2023-04-06T08:52:33;15.25;;;7.60;;
17510;SDS011;8873;48.818;9.422;2023-04-06T08:55:00;15.68;;;8.35;;
17510;SDS011;8873;48.818;9.422;2023-04-06T08:57:28;19.08;;;8.15;;
17510;SDS011;8873;48.818;9.422;2023-04-06T08:59:56;13.85;;;8.10;;
17510;SDS011;8873;48.818;9.422;2023-04-06T09:02:24;13.25;;;7.82;;
17510;SDS011;8873;48.818;9.422;2023-04-06T09:04:52;13.65;;;7.82;;
17510;SDS011;8873;48.818;9.422;2023-04-06T09:07:22;15.43;;;7.63;;
17510;SDS011;8873;48.818;9.422;2023-04-06T09:09:50;13.05;;;7.70;;
17510;SDS011;8873;48.818;9.422;2023-04-06T09:12:24;17.80;;;8.80;;
17510;SDS011;8873;48.818;9.422;2023-04-06T09:14:53;15.75;;;7.97;;
17510;SDS011;8873;48.818;9.422;2023-04-06T09:17:21;16.08;;;7.65;;
17510;SDS011;8873;48.818;9.422;2023-04-06T09:19:49;14.32;;;8.35;;
17510;SDS011;8873;48.818;9.422;2023-04-06T09:22:17;16.38;;;8.52;;
17510;SDS011;8873;48.818;9.422;2023-04-06T09:24:46;17.60;;;9.05;;
17510;SDS011;8873;48.818;9.422;2023-04-06T09:27:14;16.45;;;9.27;;
17510;SDS011;8873;48.818;9.422;2023-04-06T09:29:42;14.85;;;8.60;;
17510;SDS011;8873;48.818;9.422;2023-04-06T09:32:11;14.70;;;7.50;;
17510;SDS011;8873;48.818;9.422;2023-04-06T09:34:43;15.63;;;7.82;;
17510;SDS011;8873;48.818;9.422;2023-04-06T09:37:16;16.35;;;7.40;;
17510;SDS011;8873;48.818;9.422;2023-04-06T09:39:46;14.15;;;8.50;;
17510;SDS011;8873;48.818;9.422;2023-04-06T09:42:23;13.43;;;8.27;;
17510;SDS011;8873;48.818;9.422;2023-04-06T09:44:50;17.92;;;8.70;;
17510;SDS011;8873;48.818;9.422;2023-04-06T09:47:18;13.18;;;7.53;;
17510;SDS011;8873;48.818;9.422;2023-04-06T09:49:47;12.15;;;7.80;;
17510;SDS011;8873;48.818;9.422;2023-04-06T09:52:15;15.05;;;8.27;;
17510;SDS011;8873;48.818;9.422;2023-04-06T09:54:44;18.70;;;8.75;;
17510;SDS011;8873;48.818;9.422;2023-04-06T09:57:18;14.57;;;7.60;;
17510;SDS011;8873;48.818;9.422;2023-04-06T09:59:48;11.23;;;7.18;;
17510;SDS011;8873;48.818;9.422;2023-04-06T10:02:20;17.95;;;7.95;;
17510;SDS011;8873;48.818;9.422;2023-04-06T10:04:49;14.48;;;8.43;;
17510;SDS011;8873;48.818;9.422;2023-04-06T10:07:17;13.90;;;7.90;;
17510;SDS011;8873;48.818;9.422;2023-04-06T10:09:45;12.00;;;8.48;;
17510;SDS011;8873;48.818;9.422;2023-04-06T10:12:14;11.20;;;7.30;;
17510;SDS011;8873;48.818;9.422;2023-04-06T10:14:43;12.05;;;7.60;;
17510;SDS011;8873;48.818;9.422;2023-04-06T10:17:11;14.27;;;7.28;;
17510;SDS011;8873;48.818;9.422;2023-04-06T10:19:41;11.77;;;7.93;;
17510;SDS011;8873;48.818;9.422;2023-04-06T10:22:10;10.60;;;7.13;;
17510;SDS011;8873;48.818;9.422;2023-04-06T10:24:39;10.63;;;7.55;;
17510;SDS011;8873;48.818;9.422;2023-04-06T10:27:07;14.57;;;7.50;;
17510;SDS011;8873;48.818;9.422;2023-04-06T10:29:45;11.30;;;7.47;;
17510;SDS011;8873;48.818;9.422;2023-04-06T10:32:14;11.80;;;7.28;;
17510;SDS011;8873;48.818;9.422;2023-04-06T10:34:42;11.50;;;7.40;;
17510;SDS011;8873;48.818;9.422;2023-04-06T10:37:10;10.27;;;7.60;;
17510;SDS011;8873;48.818;9.422;2023-04-06T10:39:45;15.68;;;8.63;;
17510;SDS011;8873;48.818;9.422;2023-04-06T10:42:13;20.83;;;10.13;;
17510;SDS011;8873;48.818;9.422;2023-04-06T10:44:45;11.05;;;6.97;;
17510;SDS011;8873;48.818;9.422;2023-04-06T10:47:16;13.23;;;7.60;;
17510;SDS011;8873;48.818;9.422;2023-04-06T10:49:45;11.38;;;7.05;;
17510;SDS011;8873;48.818;9.422;2023-04-06T10:52:12;10.55;;;6.95;;
17510;SDS011;8873;48.818;9.422;2023-04-06T10:54:41;10.40;;;7.32;;
17510;SDS011;8873;48.818;9.422;2023-04-06T10:57:09;9.48;;;6.82;;
17510;SDS011;8873;48.818;9.422;2023-04-06T10:59:37;10.55;;;7.35;;
17510;SDS011;8873;48.818;9.422;2023-04-06T11:02:10;11.27;;;8.05;;
17510;SDS011;8873;48.818;9.422;2023-04-06T11:04:53;8.70;;;5.93;;
17510;SDS011;8873;48.818;9.422;2023-04-06T11:07:22;9.93;;;6.50;;
17510;SDS011;8873;48.818;9.422;2023-04-06T11:09:50;7.68;;;6.15;;
17510;SDS011;8873;48.818;9.422;2023-04-06T11:12:38;7.82;;;6.03;;
17510;SDS011;8873;48.818;9.422;2023-04-06T11:15:06;7.40;;;5.63;;
17510;SDS011;8873;48.818;9.422;2023-04-06T11:17:35;8.63;;;6.25;;
17510;SDS011;8873;48.818;9.422;2023-04-06T11:20:04;12.57;;;6.55;;
17510;SDS011;8873;48.818;9.422;2023-04-06T11:22:32;9.65;;;6.43;;
17510;SDS011;8873;48.818;9.422;2023-04-06T11:25:06;9.82;;;7.03;;
17510;SDS011;8873;48.818;9.422;2023-04-06T11:27:33;10.10;;;7.10;;
17510;SDS011;8873;48.818;9.422;2023-04-06T11:30:02;10.55;;;6.95;;
17510;SDS011;8873;48.818;9.422;2023-04-06T11:32:38;11.35;;;6.93;;
17510;SDS011;8873;48.818;9.422;2023-04-06T11:35:08;7.28;;;6.35;;
17510;SDS011;8873;48.818;9.422;2023-04-06T11:37:37;11.82;;;6.47;;
17510;SDS011;8873;48.818;9.422;2023-04-06T11:40:07;14.55;;;6.43;;
17510;SDS011;8873;48.818;9.422;2023-04-06T11:42:35;10.75;;;7.38;;
17510;SDS011;8873;48.818;9.422;2023-04-06T11:45:03;10.55;;;6.15;;
17510;SDS011;8873;48.818;9.422;2023-04-06T11:47:32;9.73;;;5.97;;
17510;SDS011;8873;48.818;9.422;2023-04-06T11:50:05;7.90;;;5.78;;
17510;SDS011;8873;48.818;9.422;2023-04-06T11:52:34;5.97;;;5.32;;
17510;SDS011;8873;48.818;9.422;2023-04-06T11:55:09;7.13;;;5.38;;
17510;SDS011;8873;48.818;9.422;2023-04-06T11:57:38;7.30;;;5.90;;
17510;SDS011;8873;48.818;9.422;2023-04-06T12:00:06;7.32;;;6.00;;
17510;SDS011;8873;48.818;9.422;2023-04-06T12:02:34;8.07;;;5.43;;
17510;SDS011;8873;48.818;9.422;2023-04-06T12:05:02;7.43;;;5.07;;
17510;SDS011;8873;48.818;9.422;2023-04-06T12:07:31;8.00;;;5.70;;
17510;SDS011;8873;48.818;9.422;2023-04-06T12:10:00;7.18;;;5.07;;
17510;SDS011;8873;48.818;9.422;2023-04-06T12:12:28;7.53;;;4.97;;
17510;SDS011;8873;48.818;9.422;2023-04-06T12:14:56;7.88;;;4.78;;
17510;SDS011;8873;48.818;9.422;2023-04-06T12:17:24;6.20;;;5.30;;
17510;SDS011;8873;48.818;9.422;2023-04-06T12:19:52;7.45;;;5.40;;
17510;SDS011;8873;48.818;9.422;2023-04-06T12:22:22;7.50;;;4.97;;
17510;SDS011;8873;48.818;9.422;2023-04-06T12:24:49;7.45;;;5.10;;
17510;SDS011;8873;48.818;9.422;2023-04-06T12:27:19;6.85;;;4.57;;
17510;SDS011;8873;48.818;9.422;2023-04-06T12:29:46;6.00;;;4.22;;
17510;SDS011;8873;48.818;9.422;2023-04-06T12:32:14;5.53;;;4.20;;
17510;SDS011;8873;48.818;9.422;2023-04-06T12:34:42;7.97;;;4.35;;
17510;SDS011;8873;48.818;9.422;2023-04-06T12:37:10;9.20;;;4.90;;
17510;SDS011;8873;48.818;9.422;2023-04-06T12:39:37;8.25;;;4.63;;
17510;SDS011;8873;48.818;9.422;2023-04-06T12:42:05;7.30;;;4.70;;
17510;SDS011;8873;48.818;9.422;2023-04-06T12:44:34;7.20;;;5.10;;
17510;SDS011;8873;48.818;9.422;2023-04-06T12:47:02;6.70;;;5.15;;
17510;SDS011;8873;48.818;9.422;2023-04-06T12:49:30;7.00;;;4.78;;
17510;SDS011;8873;48.818;9.422;2023-04-06T12:51:57;15.38;;;5.40;;
17510;SDS011;8873;48.818;9.422;2023-04-06T12:54:25;7.68;;;4.55;;
17510;SDS011;8873;48.818;9.422;2023-04-06T12:56:54;5.38;;;4.78;;
17510;SDS011;8873;48.818;9.422;2023-04-06T12:59:22;5.30;;;4.80;;
17510;SDS011;8873;48.818;9.422;2023-04-06T13:01:52;6.07;;;4.75;;
17510;SDS011;8873;48.818;9.422;2023-04-06T13:04:20;5.63;;;4.93;;
17510;SDS011;8873;48.818;9.422;2023-04-06T13:06:50;6.00;;;5.15;;
17510;SDS011;8873;48.818;9.422;2023-04-06T13:09:18;6.30;;;5.00;;
17510;SDS011;8873;48.818;9.422;2023-04-06T13:11:46;7.10;;;5.30;;
17510;SDS011;8873;48.818;9.422;2023-04-06T13:14:14;7.35;;;5.20;;
17510;SDS011;8873;48.818;9.422;2023-04-06T13:16:43;7.97;;;4.82;;
17510;SDS011;8873;48.818;9.422;2023-04-06T13:19:12;8.23;;;5.43;;
17510;SDS011;8873;48.818;9.422;2023-04-06T13:21:41;6.97;;;5.40;;
17510;SDS011;8873;48.818;9.422;2023-04-06T13:24:08;5.43;;;4.72;;
17510;SDS011;8873;48.818;9.422;2023-04-06T13:26:37;6.57;;;5.00;;
17510;SDS011;8873;48.818;9.422;2023-04-06T13:29:05;6.93;;;5.10;;
17510;SDS011;8873;48.818;9.422;2023-04-06T13:31:33;8.52;;;5.25;;
17510;SDS011;8873;48.818;9.422;2023-04-06T13:34:01;7.22;;;5.25;;
17510;SDS011;8873;48.818;9.422;2023-04-06T13:36:30;9.38;;;4.93;;
17510;SDS011;8873;48.818;9.422;2023-04-06T13:38:59;7.90;;;5.00;;
17510;SDS011;8873;48.818;9.422;2023-04-06T13:41:27;7.97;;;5.22;;
17510;SDS011;8873;48.818;9.422;2023-04-06T13:43:54;7.18;;;4.97;;
17510;SDS011;8873;48.818;9.422;2023-04-06T13:46:24;7.75;;;5.75;;
17510;SDS011;8873;48.818;9.422;2023-04-06T13:48:52;5.68;;;4.90;;
17510;SDS011;8873;48.818;9.422;2023-04-06T13:51:19;9.45;;;5.60;;
17510;SDS011;8873;48.818;9.422;2023-04-06T13:53:51;6.40;;;4.65;;
17510;SDS011;8873;48.818;9.422;2023-04-06T13:56:19;5.80;;;4.78;;
17510;SDS011;8873;48.818;9.422;2023-04-06T13:58:48;5.93;;;4.50;;
17510;SDS011;8873;48.818;9.422;2023-04-06T14:01:15;7.32;;;4.85;;
17510;SDS011;8873;48.818;9.422;2023-04-06T14:03:44;6.65;;;4.97;;
17510;SDS011;8873;48.818;9.422;2023-04-06T14:06:15;8.90;;;5.07;;
17510;SDS011;8873;48.818;9.422;2023-04-06T14:08:58;6.53;;;4.95;;
17510;SDS011;8873;48.818;9.422;2023-04-06T14:11:26;8.50;;;5.43;;
17510;SDS011;8873;48.818;9.422;2023-04-06T14:13:54;6.82;;;4.60;;
17510;SDS011;8873;48.818;9.422;2023-04-06T14:16:23;6.90;;;5.38;;
17510;SDS011;8873;48.818;9.422;2023-04-06T14:18:51;7.88;;;4.95;;
17510;SDS011;8873;48.818;9.422;2023-04-06T14:21:19;8.90;;;5.15;;
17510;SDS011;8873;48.818;9.422;2023-04-06T14:23:46;7.15;;;4.70;;
17510;SDS011;8873;48.818;9.422;2023-04-06T14:26:15;6.22;;;4.70;;
17510;SDS011;8873;48.818;9.422;2023-04-06T14:28:44;6.53;;;4.82;;
17510;SDS011;8873;48.818;9.422;2023-04-06T14:31:13;7.35;;;5.07;;
17510;SDS011;8873;48.818;9.422;2023-04-06T14:33:43;6.70;;;4.80;;
17510;SDS011;8873;48.818;9.422;2023-04-06T14:36:12;6.93;;;5.05;;
17510;SDS011;8873;48.818;9.422;2023-04-06T14:38:40;7.40;;;5.00;;
17510;SDS011;8873;48.818;9.422;2023-04-06T14:41:15;7.03;;;5.15;;
17510;SDS011;8873;48.818;9.422;2023-04-06T14:43:45;7.07;;;4.80;;
17510;SDS011;8873;48.818;9.422;2023-04-06T14:46:13;7.28;;;4.43;;
17510;SDS011;8873;48.818;9.422;2023-04-06T14:48:42;5.90;;;4.88;;
17510;SDS011;8873;48.818;9.422;2023-04-06T14:51:10;7.35;;;5.00;;
17510;SDS011;8873;48.818;9.422;2023-04-06T14:53:37;7.88;;;5.75;;
17510;SDS011;8873;48.818;9.422;2023-04-06T14:56:06;9.18;;;4.97;;
17510;SDS011;8873;48.818;9.422;2023-04-06T14:58:35;9.70;;;5.00;;
17510;SDS011;8873;48.818;9.422;2023-04-06T15:01:04;7.53;;;5.03;;
17510;SDS011;8873;48.818;9.422;2023-04-06T15:03:33;8.55;;;4.75;;
17510;SDS011;8873;48.818;9.422;2023-04-06T15:06:01;8.98;;;4.72;;
17510;SDS011;8873;48.818;9.422;2023-04-06T15:08:30;7.05;;;4.80;;